Latest Weather Observations for Bankstown

IDN60901

Issued at 1:21 pm EDT Wednesday 19 December 2018 (issued every 10 minutes, with the page automatically refreshed every 10 minutes)

About weather observations | Map of Sydney area stations | Latest observations for Sydney area | Other Formats
Station Details ID: 066137 Name: BANKSTOWN AIRPORT AWS Lat: -33.92 Lon: 150.99 Height: 6.5 m
Data from the previous 72 hours. | See also: Recent months at Bankstown
Date/Time
EDT
Temp
°C
App
Temp
°C
Dew
Point
°C
Rel
Hum
%
Delta-T
°C
Wind Press
QNH
hPa
Press
MSL
hPa
Rain since
9am
mm
Dir  Spd
km/h
Gust
km/h
Spd
kts
Gust
kts
19/01:00pm 23.4 23.9 18.3 73 3.2 SE 13 17 7 9 1014.3 1014.3 0.0
19/12:30pm 23.3 25.1 18.4 74 3.1 E 6 13 3 7 1014.6 1014.6 0.0
19/12:15pm 22.6 23.9 18.4 77 2.6 E 9 13 5 7 1014.8 1014.8 0.0
19/12:02pm 22.1 23.5 18.7 81 2.1 SE 9 13 5 7 1015.0 1015.0 0.0
19/12:00pm 21.9 22.8 18.3 80 2.2 ESE 11 13 6 7 1015.1 1015.1 0.0
19/11:30am 22.4 23.3 18.4 78 2.5 E 11 15 6 8 1015.2 1015.2 0.0
19/11:00am 22.9 23.7 17.4 71 3.4 E 9 13 5 7 1015.2 1015.2 0.0
19/10:30am 22.8 23.7 17.5 72 3.3 ESE 9 13 5 7 1015.1 1015.1 0.0
19/10:00am 22.5 22.5 17.2 72 3.3 ESE 13 17 7 9 1015.3 1015.3 0.0
19/09:30am 22.6 23.1 17.5 73 3.2 SSE 11 17 6 9 1015.2 1015.2 0.0
19/09:00am 21.7 22.2 18.3 81 2.1 ESE 13 20 7 11 1015.1 1015.1 0.0
19/08:37am 21.8 22.6 18.2 80 2.2 S 11 15 6 8 1015.2 1015.2 -
19/08:30am 21.8 22.7 18.4 81 2.1 S 11 15 6 8 1015.2 1015.2 -
19/08:00am 21.6 22.7 18.0 80 2.2 SSE 9 13 5 7 1015.0 1015.0 -
19/07:35am 21.4 22.2 18.2 82 2.0 SSE 11 33 6 18 1014.8 1014.8 -
19/07:30am 21.7 22.6 18.3 81 2.1 SE 11 33 6 18 1014.7 1014.7 -
19/07:00am 21.4 21.9 18.4 83 1.9 SE 13 15 7 8 1014.5 1014.5 -
19/06:30am 21.2 22.4 18.2 83 1.9 SSE 9 15 5 8 1014.4 1014.4 -
19/06:23am 21.2 22.1 18.4 84 1.7 SSE 11 15 6 8 1014.4 1014.4 -
19/06:00am 21.1 22.1 18.7 86 1.5 SSE 11 15 6 8 1014.1 1014.1 -
19/05:30am 20.9 21.8 18.5 86 1.5 SSE 11 13 6 7 1014.0 1014.0 -
19/05:00am 20.7 21.9 18.3 86 1.5 S 9 17 5 9 1013.8 1013.8 -
19/04:50am 20.8 21.3 18.4 86 1.5 S 13 17 7 9 1013.8 1013.8 -
19/04:30am 20.6 - 18.0 85 1.6 - - - - - 1013.8 1013.8 -
19/02:00am 20.7 21.5 19.0 90 1.1 SSE 13 19 7 10 1014.6 1014.6 0.0
19/01:30am 20.5 21.8 19.2 92 0.8 S 11 17 6 9 1014.9 1014.9 0.0
19/01:24am 20.5 21.4 19.2 92 0.8 S 13 17 7 9 1014.9 1014.9 0.0
19/01:09am 20.6 21.4 19.1 91 0.9 S 13 17 7 9 1015.1 1015.1 0.0
19/01:00am 20.8 21.6 19.1 90 1.1 S 13 19 7 10 1015.2 1015.2 0.0
19/12:30am 21.0 21.9 19.3 90 1.1 S 13 17 7 9 1015.5 1015.5 0.0
19/12:00am 20.9 21.9 19.4 91 0.9 S 13 19 7 10 1015.7 1015.7 0.0
 
Date/Time
EDT
Temp
°C
App
Temp
°C
Dew
Point
°C
Rel
Hum
%
Delta-T
°C
Wind Press
QNH
hPa
Press
MSL
hPa
Rain since
9am
mm
Dir  Spd
km/h
Gust
km/h
Spd
kts
Gust
kts
18/11:57pm 20.8 21.3 19.3 91 0.9 S 15 20 8 11 1015.7 1015.7 0.0
18/11:30pm 20.8 21.3 19.3 91 0.9 SSE 15 22 8 12 1015.7 1015.7 0.0
18/11:26pm 20.9 21.1 19.4 91 1.0 SSE 17 22 9 12 1015.7 1015.7 0.0
18/11:00pm 21.5 21.7 19.4 88 1.3 SSE 17 24 9 13 1016.0 1016.0 0.0
18/10:30pm 22.0 21.5 18.6 81 2.1 SSE 19 26 10 14 1015.9 1015.9 0.0
18/10:00pm 22.2 21.7 18.6 80 2.3 SSE 19 26 10 14 1015.9 1015.9 0.0
18/09:45pm 22.2 21.1 18.6 80 2.3 SSE 22 28 12 15 1015.7 1015.7 0.0
18/09:43pm 22.1 20.9 18.5 80 2.3 SSE 22 28 12 15 1015.7 1015.7 0.0
18/09:30pm 22.4 21.4 18.8 80 2.3 SSE 22 30 12 16 1015.4 1015.4 0.0
18/09:00pm 22.5 21.4 18.7 79 2.4 SSE 22 33 12 18 1015.4 1015.4 0.0
18/08:30pm 22.3 20.8 18.5 79 2.4 SSE 24 32 13 17 1015.1 1015.1 0.0
18/08:00pm 22.5 20.6 18.5 78 2.5 SSE 26 37 14 20 1014.6 1014.6 0.0
18/07:30pm 22.7 20.5 18.7 78 2.5 SE 28 33 15 18 1014.2 1014.2 0.0
18/07:16pm 23.0 21.9 18.7 77 2.7 SSE 22 32 12 17 1014.1 1014.1 0.0
18/07:00pm 23.2 21.0 18.7 76 2.8 SE 28 37 15 20 1013.9 1013.9 0.0
18/06:30pm 23.4 21.2 18.7 75 3.0 SSE 28 37 15 20 1013.6 1013.6 0.0
18/06:00pm 23.9 21.4 18.8 73 3.2 SSE 30 37 16 20 1013.2 1013.2 0.0
18/05:30pm 24.0 20.9 18.4 71 3.5 SSE 32 39 17 21 1012.7 1012.7 0.0
18/05:00pm 24.9 22.3 18.6 68 4.0 SSE 30 41 16 22 1012.7 1012.7 0.0
18/04:30pm 26.0 22.9 18.4 63 4.8 SSE 32 39 17 21 1012.6 1012.6 0.0
18/04:00pm 26.8 24.9 18.6 60 5.2 SSE 26 35 14 19 1012.4 1012.4 0.0
18/03:30pm 26.6 25.1 18.5 61 5.2 SSE 24 39 13 21 1012.6 1012.6 0.0
18/03:00pm 27.3 25.8 18.6 59 5.6 SSE 24 33 13 18 1012.6 1012.6 0.0
18/02:30pm 26.7 25.7 18.0 59 5.5 SSE 20 30 11 16 1012.7 1012.7 0.0
18/02:00pm 26.3 24.8 17.6 58 5.5 SE 22 32 12 17 1013.1 1013.1 0.0
18/01:30pm 26.2 25.4 18.1 61 5.1 SSE 19 28 10 15 1013.4 1013.4 0.0
18/01:00pm 27.0 26.3 19.4 63 4.9 SSE 22 30 12 16 1013.5 1013.5 0.0
18/12:30pm 26.7 25.7 18.8 62 5.1 SSE 22 32 12 17 1013.9 1013.9 0.0
18/12:00pm 25.2 23.8 17.9 64 4.6 S 22 30 12 16 1014.0 1014.0 0.0
18/11:30am 26.2 25.2 19.6 67 4.3 S 24 32 13 17 1014.2 1014.2 0.0
18/11:00am 25.5 24.2 18.2 64 4.6 SSE 22 33 12 18 1014.2 1014.2 0.0
18/10:30am 24.9 23.4 18.6 68 4.0 S 24 30 13 16 1014.4 1014.4 0.0
18/10:00am 24.3 23.0 18.2 68 3.8 S 22 28 12 15 1014.5 1014.5 0.0
18/09:30am 24.2 23.9 18.2 69 3.8 S 17 22 9 12 1014.3 1014.3 0.0
18/09:00am 23.8 23.3 17.8 69 3.7 S 17 20 9 11 1014.3 1014.3 0.0
18/08:30am 23.5 23.2 18.2 72 3.3 S 17 24 9 13 1014.2 1014.2 0.0
18/08:00am 23.0 23.5 18.3 75 2.9 SSW 13 19 7 10 1013.9 1013.9 0.0
18/07:30am 22.3 23.2 18.5 79 2.4 SSW 11 15 6 8 1013.6 1013.6 0.0
18/07:00am 22.0 23.3 18.4 80 2.3 SW 9 11 5 6 1013.4 1013.4 0.0
18/06:30am 21.8 23.5 18.4 81 2.1 SW 7 11 4 6 1013.0 1013.0 0.0
18/06:00am 21.6 23.0 18.6 83 1.9 SSW 9 11 5 6 1012.6 1012.6 0.0
18/05:30am 21.5 23.1 18.3 82 2.0 SSW 7 11 4 6 1012.2 1012.2 0.0
18/05:00am 21.4 23.1 18.4 83 1.9 SW 7 9 4 5 1011.9 1011.9 0.0
18/04:30am 21.4 23.7 18.6 84 1.8 SSW 4 7 2 4 1011.6 1011.6 0.0
18/04:00am 21.3 23.0 18.5 84 1.8 SSW 7 9 4 5 1011.6 1011.6 0.0
18/03:32am 21.4 22.7 18.4 83 1.9 S 9 15 5 8 1011.4 1011.4 0.0
18/03:30am 21.6 23.0 18.6 83 1.9 S 9 15 5 8 1011.4 1011.4 0.0
18/03:00am 21.6 22.6 18.6 83 1.9 SSE 11 15 6 8 1011.5 1011.5 0.0
18/02:30am 21.8 22.4 18.6 82 2.0 SSE 13 20 7 11 1011.5 1011.5 0.0
18/02:03am 21.6 22.5 18.4 82 2.0 SSE 11 19 6 10 1011.6 1011.6 0.0
18/02:00am 21.7 22.3 18.5 82 2.0 SSE 13 20 7 11 1011.6 1011.6 0.0
18/01:30am 21.7 22.6 18.5 82 2.0 SSE 11 17 6 9 1011.8 1011.8 0.0
18/01:00am 22.1 23.1 18.7 81 2.1 SSE 11 17 6 9 1012.0 1012.0 0.0
18/12:30am 22.1 23.5 18.7 81 2.1 SSE 9 13 5 7 1012.0 1012.0 0.0
18/12:00am 21.9 23.5 19.1 84 1.8 S 9 17 5 9 1012.1 1012.1 0.0
 
Date/Time
EDT
Temp
°C
App
Temp
°C
Dew
Point
°C
Rel
Hum
%
Delta-T
°C
Wind Press
QNH
hPa
Press
MSL
hPa
Rain since
9am
mm
Dir  Spd
km/h
Gust
km/h
Spd
kts
Gust
kts
17/11:30pm 22.2 23.4 19.0 82 2.0 SSE 11 17 6 9 1012.1 1012.1 0.0
17/11:00pm 22.6 23.2 19.4 82 2.0 SSE 15 20 8 11 1012.0 1012.0 0.0
17/10:30pm 22.8 23.1 19.6 82 2.0 SSE 17 22 9 12 1011.8 1011.8 0.0
17/10:00pm 23.0 22.9 19.6 81 2.2 SE 19 24 10 13 1011.6 1011.6 0.0
17/09:30pm 23.1 23.4 19.7 81 2.2 SE 17 20 9 11 1011.3 1011.3 0.0
17/09:00pm 23.5 23.4 19.6 79 2.5 SE 19 22 10 12 1010.9 1010.9 0.0
17/08:30pm 23.6 23.5 19.5 78 2.6 SE 19 24 10 13 1010.6 1010.6 0.0
17/08:00pm 24.9 24.7 19.3 71 3.6 SE 19 22 10 12 1010.2 1010.2 0.0
17/07:30pm 26.7 25.6 17.2 56 5.9 ESE 19 24 10 13 1009.6 1009.6 0.0
17/07:00pm 27.9 26.5 15.5 46 7.6 E 17 22 9 12 1009.0 1009.0 0.0
17/06:30pm 28.3 26.7 14.9 44 8.1 E 17 24 9 13 1008.6 1008.6 0.0
17/06:00pm 28.3 26.5 15.6 46 7.8 E 19 26 10 14 1008.3 1008.3 0.0
17/05:30pm 28.9 26.3 13.9 39 9.0 E 20 30 11 16 1007.8 1007.8 0.0
17/05:00pm 29.8 27.6 14.4 39 9.3 ENE 19 28 10 15 1007.7 1007.7 0.0
17/04:30pm 29.5 26.0 13.3 37 9.6 E 24 33 13 18 1007.4 1007.4 0.0
17/04:00pm 30.2 26.6 13.0 34 10.2 E 24 33 13 18 1007.3 1007.3 0.0
17/03:30pm 30.6 26.9 11.5 30 11.1 E 22 32 12 17 1007.6 1007.6 0.0
17/03:00pm 31.1 26.7 8.8 25 12.5 E 22 35 12 19 1007.7 1007.7 0.0
17/02:30pm 30.8 26.4 11.7 31 11.1 ESE 26 37 14 20 1007.7 1007.7 0.0
17/02:00pm 30.8 26.6 9.6 27 12.0 E 22 30 12 16 1007.9 1007.9 0.0
17/01:30pm 30.9 27.4 10.8 29 11.6 ESE 20 30 11 16 1008.1 1008.1 0.0
17/01:00pm 30.9 28.1 11.3 30 11.4 E 17 28 9 15 1008.3 1008.3 0.0
17/12:30pm 31.2 29.4 14.4 36 10.2 ESE 17 26 9 14 1008.5 1008.5 0.0
17/12:00pm 30.4 29.7 15.3 40 9.3 E 13 19 7 10 1008.7 1008.7 0.0
17/11:30am 29.2 29.8 16.7 46 7.8 SSE 9 19 5 10 1009.0 1009.0 0.0
17/11:00am 28.7 28.4 14.5 42 8.6 SE 9 20 5 11 1009.3 1009.3 0.0
17/10:30am 28.1 28.3 16.7 50 7.1 SSE 11 15 6 8 1009.5 1009.5 0.0
17/10:00am 27.6 28.6 17.7 54 6.3 S 9 17 5 9 1009.6 1009.6 0.0
17/09:30am 26.9 29.2 18.5 60 5.4 ESE 4 11 2 6 1009.5 1009.5 0.0
17/09:00am 26.2 27.7 17.6 59 5.4 S 6 11 3 6 1009.6 1009.6 0.0
17/08:30am 25.1 24.9 16.8 60 5.1 SW 13 15 7 8 1009.6 1009.6 0.0
17/08:00am 24.5 25.4 17.5 65 4.4 W 9 13 5 7 1009.4 1009.4 0.0
17/07:30am 23.0 25.0 19.2 79 2.4 NNW 7 11 4 6 1009.2 1009.2 0.0
17/07:00am 21.7 24.0 19.8 89 1.2 NW 7 9 4 5 1008.7 1008.7 0.0
17/06:30am 20.6 22.8 19.3 92 0.8 N 6 9 3 5 1008.3 1008.3 0.0
17/06:00am 20.2 23.4 18.9 92 0.8 CALM 0 0 0 0 1008.0 1008.0 0.0
17/05:30am 20.1 23.3 18.8 92 0.8 CALM 0 0 0 0 1007.7 1007.7 0.0
17/05:00am 20.2 22.1 18.9 92 0.8 SW 7 9 4 5 1007.3 1007.3 0.0
17/04:30am 20.6 22.4 18.7 89 1.2 S 7 7 4 4 1007.0 1007.0 0.0
17/04:00am 21.4 23.1 19.3 88 1.3 SE 9 11 5 6 1006.8 1006.8 0.0
17/03:30am 21.6 24.9 19.0 85 1.6 CALM 0 0 0 0 1006.6 1006.6 0.0
17/03:00am 22.3 24.5 19.5 84 1.8 E 7 9 4 5 1006.5 1006.5 0.0
17/02:30am 22.4 24.7 19.8 85 1.7 SE 7 9 4 5 1006.6 1006.6 0.0
17/02:00am 21.5 23.5 18.7 84 1.8 S 6 9 3 5 1006.8 1006.8 0.0
17/01:30am 22.0 25.1 18.6 81 2.1 CALM 0 0 0 0 1006.7 1006.7 0.0
17/01:00am 23.5 26.3 17.9 71 3.5 CALM 0 0 0 0 1006.7 1006.7 0.0
17/12:30am 24.5 26.0 17.7 66 4.2 N 6 9 3 5 1006.8 1006.8 0.0
17/12:00am 24.8 26.5 18.0 66 4.3 N 6 11 3 6 1006.8 1006.8 0.0
 
Date/Time
EDT
Temp
°C
App
Temp
°C
Dew
Point
°C
Rel
Hum
%
Delta-T
°C
Wind Press
QNH
hPa
Press
MSL
hPa
Rain since
9am
mm
Dir  Spd
km/h
Gust
km/h
Spd
kts
Gust
kts
16/11:30pm 25.1 25.9 18.1 65 4.4 N 11 20 6 11 1007.0 1007.0 0.0
16/11:00pm 24.7 27.9 19.8 74 3.2 NNE 2 9 1 5 1006.9 1006.9 0.0
16/10:30pm 24.0 26.4 19.7 77 2.8 NE 6 9 3 5 1006.9 1006.9 0.0
16/10:00pm 24.4 26.7 19.9 76 2.9 NE 7 11 4 6 1006.6 1006.6 0.0
16/09:30pm 24.9 26.4 19.7 73 3.4 ENE 11 17 6 9 1006.3 1006.3 0.0
16/09:00pm 25.8 27.1 19.4 67 4.1 NE 11 17 6 9 1006.3 1006.3 0.0
16/08:30pm 26.0 27.0 19.4 67 4.3 NE 13 20 7 11 1006.0 1006.0 0.0
16/08:00pm 26.2 26.4 19.3 65 4.5 NE 17 24 9 13 1005.9 1005.9 0.0
16/07:30pm 27.6 28.6 17.7 54 6.3 NE 9 19 5 10 1005.7 1005.7 0.0
16/07:00pm 27.9 26.5 17.1 51 6.8 NNE 20 35 11 19 1004.4 1004.4 0.0
16/06:30pm 28.0 24.0 16.3 49 7.2 NE 32 50 17 27 1003.4 1003.4 0.0
16/06:16pm 28.0 24.9 16.6 50 7.1 NE 28 50 15 27 1003.2 1003.2 0.0
16/06:00pm 28.2 24.2 16.1 47 7.5 NE 32 48 17 26 1003.5 1003.5 0.0
16/05:47pm 29.3 25.7 17.2 48 7.6 NE 32 54 17 29 1003.4 1003.4 0.0
16/05:30pm 28.7 27.3 18.8 55 6.4 NE 24 39 13 21 1003.4 1003.4 0.0
16/05:12pm 28.9 26.8 19.8 58 5.9 NE 30 48 16 26 1003.4 1003.4 0.0
16/05:00pm 29.1 26.3 19.4 55 6.3 NE 33 48 18 26 1003.6 1003.6 0.0
16/04:31pm 29.5 28.1 21.2 61 5.5 NE 30 48 16 26 1003.7 1003.7 0.0
16/04:30pm 29.5 27.7 21.2 61 5.5 NE 32 48 17 26 1003.6 1003.6 0.0
16/04:25pm 29.5 27.8 20.6 58 5.9 ENE 30 48 16 26 1003.5 1003.5 0.0
16/04:00pm 29.7 29.0 21.1 60 5.8 ENE 26 37 14 20 1003.6 1003.6 0.0
16/03:30pm 30.9 29.1 19.6 51 7.4 ENE 28 43 15 23 1004.0 1004.0 0.0
16/03:00pm 30.9 28.7 18.6 48 8.0 ENE 28 41 15 22 1004.2 1004.2 0.0
16/02:30pm 31.5 29.9 20.1 50 7.5 ENE 28 39 15 21 1004.4 1004.4 0.0
16/02:00pm 31.4 30.0 19.7 49 7.7 ENE 26 35 14 19 1004.6 1004.6 0.0
16/01:30pm 31.5 31.4 20.8 53 7.1 ENE 22 32 12 17 1005.1 1005.1 0.0

Latest Capital City Observations: Canberra | Sydney | Melbourne | Brisbane | Adelaide | Perth | Hobart | Darwin

Other Formats:

Comma delimited format used in spreadsheet applications
http://www.bom.gov.au/fwo/IDN60901/IDN60901.94765.axf

JavaScript Object Notation format (JSON) in row-major order
http://www.bom.gov.au/fwo/IDN60901/IDN60901.94765.json